Terminal Aerodrome Forecast
Issued by NWS

Home | Current Version | Previous Version | Text Only | Print | Product List | Glossary On
Versions: 1 2 3 4 5 6 7 8 9 10 11 12 13
000
FTUS45 KABQ 061100
TAFSAF
TAF
KSAF 061133Z 0612/0712 35009KT P6SM SKC
     FM061400 35013KT P6SM SKC
     FM061900 25007KT P6SM SKC
     FM070200 02006KT P6SM SKC=

USA.gov is the U.S. government's official web portal to all federal, state and local government web resources and services.